createdAt,value
2024-03-02T00:00:21.509Z,86.26
2024-03-02T00:00:53.928Z,86.14
2024-03-02T00:01:26.008Z,86.46
2024-03-02T00:01:58.018Z,86.27
2024-03-02T00:02:30.064Z,86.09
2024-03-02T00:03:02.038Z,86.27
2024-03-02T00:03:34.425Z,86.48
2024-03-02T00:04:08.045Z,86.34
2024-03-02T00:04:40.026Z,86.10
2024-03-02T00:05:21.914Z,86.76
2024-03-02T00:05:53.860Z,87.30
2024-03-02T00:06:25.816Z,87.01
2024-03-02T00:06:58.442Z,86.82
2024-03-02T00:07:30.368Z,86.64
2024-03-02T00:08:02.272Z,86.43
2024-03-02T00:08:34.168Z,85.90
2024-03-02T00:09:06.127Z,85.50
2024-03-02T00:09:38.130Z,86.14
2024-03-02T00:10:14.018Z,86.64
2024-03-02T00:10:45.980Z,86.95
2024-03-02T00:11:19.432Z,87.37
2024-03-02T00:11:52.068Z,87.17
2024-03-02T00:12:23.994Z,86.97
2024-03-02T00:12:56.751Z,86.93
2024-03-02T00:13:28.902Z,87.45
2024-03-02T00:14:01.298Z,86.99
2024-03-02T00:14:33.257Z,86.34
2024-03-02T00:15:44.232Z,85.76
2024-03-02T00:16:17.472Z,85.15
2024-03-02T00:16:49.458Z,85.01
2024-03-02T00:17:26.678Z,85.59
2024-03-02T00:17:58.871Z,86.07
2024-03-02T00:18:34.834Z,85.82
2024-03-02T00:19:07.098Z,85.40
2024-03-02T00:19:40.904Z,85.77
2024-03-02T00:20:12.851Z,85.93
2024-03-02T00:20:44.735Z,86.08
2024-03-02T00:21:19.493Z,86.19
2024-03-02T00:21:51.571Z,86.29
2024-03-02T00:22:23.537Z,86.33
2024-03-02T00:23:02.977Z,86.22
2024-03-02T00:23:34.900Z,86.09
2024-03-02T00:24:35.981Z,86.12
2024-03-02T00:25:09.891Z,85.03
2024-03-02T00:25:48.462Z,84.66
2024-03-02T00:26:20.428Z,84.46
2024-03-02T00:26:52.331Z,84.60
2024-03-02T00:27:26.193Z,84.86
2024-03-02T00:27:58.284Z,84.86
2024-03-02T00:28:36.948Z,84.95
2024-03-02T00:29:14.563Z,84.88
2024-03-02T00:29:46.492Z,84.87
2024-03-02T00:30:42.572Z,84.91
2024-03-02T00:31:14.763Z,85.17
2024-03-02T00:31:47.400Z,85.29
2024-03-02T00:32:19.369Z,85.22
2024-03-02T00:32:53.913Z,85.00
2024-03-02T00:33:31.496Z,84.84
2024-03-02T00:34:03.631Z,84.88
2024-03-02T00:34:35.575Z,85.33
2024-03-02T00:35:07.567Z,85.48
2024-03-02T00:35:39.464Z,85.68
2024-03-02T00:36:12.533Z,85.98
2024-03-02T00:36:44.558Z,85.81
2024-03-02T00:37:16.464Z,85.80
2024-03-02T00:37:48.999Z,85.99
2024-03-02T00:38:20.934Z,85.99
2024-03-02T00:38:56.620Z,86.12
2024-03-02T00:39:28.566Z,86.09
2024-03-02T00:40:00.592Z,85.95
2024-03-02T00:40:32.673Z,86.02
2024-03-02T00:41:09.963Z,86.02
2024-03-02T00:41:43.531Z,85.77
2024-03-02T00:42:15.736Z,86.00
2024-03-02T00:42:47.708Z,86.29
2024-03-02T00:43:25.114Z,86.48
2024-03-02T00:44:04.500Z,86.40
2024-03-02T00:44:38.590Z,86.65
2024-03-02T00:45:11.063Z,86.96
2024-03-02T00:45:42.982Z,86.70
2024-03-02T00:46:19.374Z,86.47
2024-03-02T00:46:51.275Z,86.41
2024-03-02T00:47:23.219Z,86.43
2024-03-02T00:47:55.225Z,86.25
2024-03-02T00:48:27.205Z,86.01
2024-03-02T00:49:00.128Z,85.72
2024-03-02T00:49:32.165Z,86.18
2024-03-02T00:50:13.041Z,86.25
2024-03-02T00:50:52.356Z,86.10
2024-03-02T00:51:25.277Z,86.16
2024-03-02T00:51:57.417Z,86.12
2024-03-02T00:52:29.464Z,86.21
2024-03-02T00:53:01.632Z,86.01
2024-03-02T00:53:36.492Z,86.05
2024-03-02T00:54:09.391Z,86.15
2024-03-02T00:54:41.334Z,86.26
2024-03-02T00:55:13.431Z,86.46
2024-03-02T00:55:48.578Z,86.42
2024-03-02T00:56:20.511Z,86.02
2024-03-02T00:56:52.854Z,86.23
2024-03-02T00:57:27.130Z,86.34
2024-03-02T00:57:59.233Z,86.25
2024-03-02T00:58:31.159Z,86.02
2024-03-02T00:59:03.084Z,85.91
2024-03-02T00:59:35.064Z,85.83
2024-03-02T01:00:10.907Z,85.77
2024-03-02T01:00:42.883Z,85.91
2024-03-02T01:01:15.060Z,85.68
2024-03-02T01:01:47.297Z,85.99
2024-03-02T01:02:21.244Z,85.66
2024-03-02T01:02:53.708Z,86.17
2024-03-02T01:03:25.633Z,86.41
2024-03-02T01:03:57.707Z,86.42
2024-03-02T01:04:29.848Z,86.19
2024-03-02T01:05:02.077Z,86.30
2024-03-02T01:05:34.038Z,86.36
2024-03-02T01:06:06.207Z,85.59
2024-03-02T01:06:38.157Z,85.30
2024-03-02T01:07:10.993Z,85.66
2024-03-02T01:07:42.983Z,85.96
2024-03-02T01:08:14.876Z,86.07
2024-03-02T01:08:47.620Z,85.55
2024-03-02T01:09:19.746Z,85.41
2024-03-02T01:09:51.748Z,85.79
2024-03-02T01:10:23.701Z,85.69
2024-03-02T01:10:55.906Z,85.53
2024-03-02T01:11:27.935Z,85.20
2024-03-02T01:11:59.922Z,85.03
2024-03-02T01:12:31.857Z,85.55
2024-03-02T01:13:03.795Z,85.46
2024-03-02T01:13:36.916Z,84.71
2024-03-02T01:14:09.256Z,85.04
2024-03-02T01:14:41.183Z,84.95
2024-03-02T01:15:13.119Z,85.28
2024-03-02T01:15:45.072Z,85.35
2024-03-02T01:16:17.022Z,85.59
2024-03-02T01:16:48.955Z,85.65
2024-03-02T01:17:20.913Z,85.19
2024-03-02T01:17:55.824Z,85.16
2024-03-02T01:18:28.324Z,85.30
2024-03-02T01:19:00.367Z,85.61
2024-03-02T01:19:32.405Z,85.93
2024-03-02T01:20:05.672Z,85.92
2024-03-02T01:20:37.582Z,85.12
2024-03-02T01:21:09.474Z,85.28
2024-03-02T01:21:41.427Z,85.27
2024-03-02T01:22:13.875Z,85.19
2024-03-02T01:22:45.820Z,85.11
2024-03-02T01:23:17.740Z,84.93
2024-03-02T01:23:49.671Z,84.92
2024-03-02T01:24:21.618Z,85.00
2024-03-02T01:24:53.600Z,84.95
2024-03-02T01:25:26.153Z,84.75
2024-03-02T01:25:58.313Z,84.45
2024-03-02T01:26:30.216Z,84.35
2024-03-02T01:27:02.154Z,84.31
2024-03-02T01:27:34.179Z,84.45
2024-03-02T01:28:06.608Z,84.73
2024-03-02T01:28:38.558Z,84.74
2024-03-02T01:29:10.686Z,84.22
2024-03-02T01:29:42.608Z,84.26
2024-03-02T01:30:14.621Z,84.11
2024-03-02T01:30:46.598Z,84.30
2024-03-02T01:31:18.578Z,84.77
2024-03-02T01:31:52.639Z,84.40
2024-03-02T01:32:24.574Z,84.60
2024-03-02T01:32:57.523Z,84.56
2024-03-02T01:33:29.544Z,84.41
2024-03-02T01:34:01.554Z,84.32
2024-03-02T01:34:33.569Z,84.24
2024-03-02T01:35:06.686Z,84.14
2024-03-02T01:35:38.657Z,83.96
2024-03-02T01:36:10.604Z,84.01
2024-03-02T01:36:42.575Z,84.11
2024-03-02T01:37:14.537Z,84.31
2024-03-02T01:37:46.451Z,84.67
2024-03-02T01:38:18.370Z,84.58
2024-03-02T01:38:50.373Z,84.69
2024-03-02T01:39:22.312Z,84.44
2024-03-02T01:39:54.334Z,84.47
2024-03-02T01:40:29.559Z,84.47
2024-03-02T01:41:01.544Z,84.75
2024-03-02T01:41:33.455Z,84.87
2024-03-02T01:42:05.476Z,84.68
2024-03-02T01:42:38.243Z,84.87
2024-03-02T01:43:10.150Z,85.12
2024-03-02T01:43:42.360Z,85.22
2024-03-02T01:44:14.348Z,84.93
2024-03-02T01:44:46.340Z,85.08
2024-03-02T01:45:18.262Z,84.74
2024-03-02T01:45:50.244Z,84.69
2024-03-02T01:46:23.188Z,84.66
2024-03-02T01:46:55.112Z,84.60
2024-03-02T01:47:27.118Z,85.25
2024-03-02T01:47:59.210Z,85.09
2024-03-02T01:48:31.099Z,84.48
2024-03-02T01:49:03.366Z,84.50
2024-03-02T01:49:35.382Z,84.88
2024-03-02T01:50:07.473Z,85.04
2024-03-02T01:50:39.362Z,85.00
2024-03-02T01:51:11.831Z,84.73
2024-03-02T01:51:43.823Z,84.54
2024-03-02T01:52:15.718Z,84.95
2024-03-02T01:52:47.605Z,85.06
2024-03-02T01:53:20.082Z,84.77
2024-03-02T01:53:51.975Z,84.95
2024-03-02T01:54:24.521Z,85.19
2024-03-02T01:54:56.643Z,85.24
2024-03-02T01:55:31.214Z,85.01
2024-03-02T01:56:03.284Z,85.01
2024-03-02T01:56:35.209Z,85.14
2024-03-02T01:57:08.021Z,84.54
2024-03-02T01:57:40.012Z,84.89
2024-03-02T01:58:11.992Z,85.32
2024-03-02T01:58:45.524Z,85.00
2024-03-02T01:59:17.453Z,84.84
2024-03-02T01:59:49.405Z,84.82
2024-03-02T02:00:21.519Z,84.93
2024-03-02T02:00:53.520Z,85.12
2024-03-02T02:01:25.555Z,84.90
2024-03-02T02:01:57.532Z,85.07
2024-03-02T02:02:29.516Z,85.03
2024-03-02T02:03:01.423Z,85.05
2024-03-02T02:03:33.335Z,84.89
2024-03-02T02:04:05.279Z,84.67
2024-03-02T02:04:37.240Z,84.69
2024-03-02T02:05:09.234Z,84.88
2024-03-02T02:05:43.107Z,85.15
2024-03-02T02:06:15.079Z,84.90
2024-03-02T02:06:47.032Z,84.54
2024-03-02T02:07:18.940Z,84.63
2024-03-02T02:07:50.833Z,84.88
2024-03-02T02:08:22.769Z,84.67
2024-03-02T02:08:54.713Z,84.82
2024-03-02T02:09:26.746Z,84.82
2024-03-02T02:09:59.097Z,84.21
2024-03-02T02:10:31.086Z,84.32
2024-03-02T02:11:03.170Z,84.55
2024-03-02T02:11:35.623Z,84.73
2024-03-02T02:12:08.821Z,84.73
2024-03-02T02:12:40.791Z,85.14
2024-03-02T02:13:12.711Z,85.01
2024-03-02T02:13:44.631Z,84.87
2024-03-02T02:14:16.765Z,84.42
2024-03-02T02:14:50.240Z,83.98
2024-03-02T02:15:25.652Z,84.34
2024-03-02T02:16:09.739Z,84.73
2024-03-02T02:16:41.674Z,84.88
2024-03-02T02:17:13.599Z,84.61
2024-03-02T02:17:45.592Z,84.41
2024-03-02T02:18:17.654Z,84.25
2024-03-02T02:18:49.661Z,84.13
2024-03-02T02:19:21.633Z,84.28
2024-03-02T02:19:53.590Z,84.34
2024-03-02T02:20:25.937Z,84.30
2024-03-02T02:20:57.862Z,84.17
2024-03-02T02:21:29.825Z,84.46
2024-03-02T02:22:03.061Z,84.85
2024-03-02T02:22:35.008Z,84.73
2024-03-02T02:23:08.980Z,84.57
2024-03-02T02:23:40.916Z,84.64
2024-03-02T02:24:14.421Z,84.27
2024-03-02T02:24:46.476Z,83.94
2024-03-02T02:25:18.367Z,83.68
2024-03-02T02:25:50.309Z,83.76
2024-03-02T02:26:22.340Z,84.36
2024-03-02T02:26:54.242Z,84.52
2024-03-02T02:27:26.193Z,84.58
2024-03-02T02:27:58.742Z,84.40
2024-03-02T02:28:30.956Z,84.18
2024-03-02T02:29:03.347Z,84.06
2024-03-02T02:29:35.516Z,84.08
2024-03-02T02:30:09.041Z,83.93
2024-03-02T02:30:40.980Z,83.89
2024-03-02T02:31:12.902Z,83.80
2024-03-02T02:31:44.887Z,83.46
2024-03-02T02:32:16.798Z,83.49
2024-03-02T02:32:48.762Z,83.28
2024-03-02T02:33:20.827Z,83.23
2024-03-02T02:33:52.880Z,83.20
2024-03-02T02:34:24.809Z,83.43
2024-03-02T02:34:57.244Z,83.36
2024-03-02T02:35:30.660Z,83.34
2024-03-02T02:36:02.708Z,83.33
2024-03-02T02:36:35.167Z,83.38
2024-03-02T02:37:07.108Z,83.32
2024-03-02T02:37:39.887Z,83.45
2024-03-02T02:38:11.773Z,83.38
2024-03-02T02:38:45.569Z,83.33
2024-03-02T02:39:17.923Z,83.05
2024-03-02T02:39:49.929Z,82.77
2024-03-02T02:40:21.933Z,82.80
2024-03-02T02:40:53.867Z,82.88
2024-03-02T02:41:25.772Z,82.58
2024-03-02T02:41:57.754Z,83.01
2024-03-02T02:42:29.703Z,82.92
2024-03-02T02:43:01.672Z,82.99
2024-03-02T02:43:33.614Z,83.02
2024-03-02T02:44:05.918Z,83.15
2024-03-02T02:44:37.815Z,82.88
2024-03-02T02:45:09.748Z,82.35
2024-03-02T02:45:41.826Z,82.91
2024-03-02T02:46:13.827Z,83.12
2024-03-02T02:46:45.726Z,83.05
2024-03-02T02:47:17.694Z,82.95
2024-03-02T02:47:49.661Z,83.02
2024-03-02T02:48:21.757Z,82.91
2024-03-02T02:48:54.478Z,83.01
2024-03-02T02:49:26.438Z,83.21
2024-03-02T02:49:58.358Z,83.41
2024-03-02T02:50:30.333Z,83.33
2024-03-02T02:51:02.336Z,83.40
2024-03-02T02:51:34.322Z,83.21
2024-03-02T02:52:06.271Z,82.84
2024-03-02T02:52:40.759Z,82.79
2024-03-02T02:53:12.745Z,82.84
2024-03-02T02:53:44.646Z,82.90
2024-03-02T02:54:16.590Z,82.41
2024-03-02T02:54:48.591Z,82.47
2024-03-02T02:55:20.541Z,82.60
2024-03-02T02:55:52.516Z,83.26
2024-03-02T02:56:24.608Z,83.38
2024-03-02T02:56:56.545Z,83.53
2024-03-02T02:57:29.169Z,83.62
2024-03-02T02:58:01.130Z,83.72
2024-03-02T02:58:33.115Z,83.69
2024-03-02T02:59:05.113Z,83.78
2024-03-02T02:59:37.306Z,83.99
2024-03-02T03:00:20.312Z,83.95
2024-03-02T03:00:52.451Z,83.17
2024-03-02T03:01:24.806Z,82.92
2024-03-02T03:01:56.802Z,82.78
2024-03-02T03:02:29.412Z,82.89
2024-03-02T03:03:01.342Z,82.89
2024-03-02T03:03:33.272Z,82.74
2024-03-02T03:04:05.194Z,82.77
2024-03-02T03:04:37.093Z,82.87
2024-03-02T03:05:12.875Z,83.32
2024-03-02T03:05:44.973Z,83.45
2024-03-02T03:06:17.012Z,83.24
2024-03-02T03:06:49.015Z,83.30
2024-03-02T03:07:21.043Z,83.64
2024-03-02T03:07:52.937Z,83.77
2024-03-02T03:08:24.833Z,84.05
2024-03-02T03:08:56.747Z,84.30
2024-03-02T03:09:28.707Z,84.55
2024-03-02T03:10:00.699Z,84.46
2024-03-02T03:10:32.701Z,84.56
2024-03-02T03:11:05.872Z,84.37
2024-03-02T03:11:37.941Z,84.16
2024-03-02T03:12:09.886Z,83.87
2024-03-02T03:12:43.208Z,83.37
2024-03-02T03:13:15.206Z,83.40
2024-03-02T03:13:47.220Z,83.48
2024-03-02T03:14:19.230Z,83.70
2024-03-02T03:14:51.243Z,83.97
2024-03-02T03:15:23.249Z,84.20
2024-03-02T03:15:55.291Z,84.19
2024-03-02T03:16:27.273Z,83.92
2024-03-02T03:16:59.155Z,84.00
2024-03-02T03:17:31.059Z,84.06
2024-03-02T03:18:04.879Z,83.77
2024-03-02T03:18:37.078Z,83.60
2024-03-02T03:19:09.430Z,83.54
2024-03-02T03:19:41.440Z,83.36
2024-03-02T03:20:16.647Z,83.80
2024-03-02T03:20:48.748Z,83.87
2024-03-02T03:21:20.679Z,83.54
2024-03-02T03:21:52.826Z,83.89
2024-03-02T03:22:24.863Z,83.20
2024-03-02T03:22:57.223Z,83.21
2024-03-02T03:23:29.134Z,83.02
2024-03-02T03:24:01.027Z,83.18
2024-03-02T03:24:34.131Z,83.21
2024-03-02T03:25:06.600Z,82.70
2024-03-02T03:25:38.507Z,82.71
2024-03-02T03:26:10.397Z,83.29
2024-03-02T03:26:42.278Z,83.38
2024-03-02T03:27:14.322Z,82.98
2024-03-02T03:27:47.261Z,83.17
2024-03-02T03:28:19.183Z,83.63
2024-03-02T03:28:51.121Z,83.74
2024-03-02T03:29:23.049Z,84.01
2024-03-02T03:29:55.681Z,83.75
2024-03-02T03:30:27.716Z,83.59
2024-03-02T03:30:59.722Z,83.62
2024-03-02T03:31:31.672Z,84.03
2024-03-02T03:32:03.605Z,83.91
2024-03-02T03:32:35.587Z,84.05
2024-03-02T03:33:07.607Z,83.82
2024-03-02T03:33:39.551Z,83.87
2024-03-02T03:34:13.498Z,83.61
2024-03-02T03:34:45.434Z,83.52
2024-03-02T03:35:17.345Z,83.54
2024-03-02T03:35:49.376Z,83.55
2024-03-02T03:36:21.308Z,83.63
2024-03-02T03:36:53.321Z,83.78
2024-03-02T03:37:26.935Z,83.69
2024-03-02T03:37:58.819Z,83.54
2024-03-02T03:38:31.516Z,83.52
2024-03-02T03:39:04.580Z,83.43
2024-03-02T03:39:39.063Z,83.36
2024-03-02T03:40:11.799Z,83.36
2024-03-02T03:40:43.882Z,83.35
2024-03-02T03:41:16.489Z,82.92
2024-03-02T03:41:48.412Z,82.68
2024-03-02T03:42:20.380Z,82.77
2024-03-02T03:42:52.908Z,83.00
2024-03-02T03:43:24.890Z,83.14
2024-03-02T03:43:56.959Z,83.05
2024-03-02T03:44:28.843Z,83.29
2024-03-02T03:45:00.765Z,82.92
2024-03-02T03:45:32.819Z,83.24
2024-03-02T03:46:04.841Z,83.12
2024-03-02T03:46:36.829Z,83.29
2024-03-02T03:47:08.721Z,83.52
2024-03-02T03:47:40.690Z,83.43
2024-03-02T03:48:12.729Z,83.18
2024-03-02T03:48:44.768Z,83.16
2024-03-02T03:49:16.757Z,83.02
2024-03-02T03:49:48.663Z,83.39
2024-03-02T03:50:21.035Z,83.61
2024-03-02T03:50:53.039Z,83.62
2024-03-02T03:51:24.982Z,83.47
2024-03-02T03:51:57.026Z,83.71
2024-03-02T03:52:29.357Z,83.66
2024-03-02T03:53:01.260Z,83.55
2024-03-02T03:53:33.189Z,83.58
2024-03-02T03:54:05.116Z,83.29
2024-03-02T03:54:39.577Z,83.02
2024-03-02T03:55:11.569Z,82.95
2024-03-02T03:55:43.480Z,83.67
2024-03-02T03:56:15.405Z,83.55
2024-03-02T03:56:47.319Z,83.46
2024-03-02T03:57:19.319Z,83.58
2024-03-02T03:57:51.336Z,83.46
2024-03-02T03:58:23.613Z,83.69
2024-03-02T03:58:55.569Z,83.87
2024-03-02T03:59:27.496Z,83.65
2024-03-02T03:59:59.404Z,83.23
2024-03-02T04:00:31.376Z,83.48
2024-03-02T04:01:03.432Z,83.55
2024-03-02T04:01:35.452Z,83.58
2024-03-02T04:02:08.228Z,83.46
2024-03-02T04:02:40.223Z,83.38
2024-03-02T04:03:12.153Z,83.52
2024-03-02T04:03:44.143Z,83.41
2024-03-02T04:04:16.054Z,83.42
2024-03-02T04:04:48.027Z,83.26
2024-03-02T04:05:19.933Z,83.43
2024-03-02T04:05:53.308Z,83.68
2024-03-02T04:06:25.515Z,83.35
2024-03-02T04:06:57.476Z,83.38
2024-03-02T04:07:29.428Z,83.85
2024-03-02T04:08:02.328Z,83.87
2024-03-02T04:08:34.225Z,84.23
2024-03-02T04:09:06.138Z,83.93
2024-03-02T04:09:38.078Z,83.95
2024-03-02T04:10:10.555Z,83.84
2024-03-02T04:10:43.270Z,84.78
2024-03-02T04:11:15.235Z,85.52
2024-03-02T04:11:47.335Z,85.90
2024-03-02T04:12:19.270Z,85.69
2024-03-02T04:12:51.766Z,85.50
2024-03-02T04:13:23.788Z,85.36
2024-03-02T04:13:57.963Z,85.72
2024-03-02T04:14:30.925Z,85.57
2024-03-02T04:15:03.090Z,85.44
2024-03-02T04:15:35.164Z,85.98
2024-03-02T04:16:07.313Z,86.19
2024-03-02T04:16:39.452Z,87.08
2024-03-02T04:17:11.538Z,87.47
2024-03-02T04:17:43.606Z,87.21
2024-03-02T04:18:15.569Z,86.40
2024-03-02T04:18:47.522Z,87.44
2024-03-02T04:19:19.445Z,88.04
2024-03-02T04:19:51.349Z,89.16
2024-03-02T04:20:23.264Z,89.68
2024-03-02T04:20:55.164Z,89.49
2024-03-02T04:21:27.263Z,89.20
2024-03-02T04:22:01.624Z,89.05
2024-03-02T04:22:37.655Z,87.97
2024-03-02T04:23:09.609Z,87.91
2024-03-02T04:23:41.545Z,87.78
2024-03-02T04:24:13.447Z,88.59
2024-03-02T04:24:45.377Z,88.41
2024-03-02T04:25:17.288Z,88.61
2024-03-02T04:25:49.218Z,90.55
2024-03-02T04:26:23.403Z,91.53
2024-03-02T04:26:55.316Z,91.01
2024-03-02T04:27:27.500Z,89.48
2024-03-02T04:27:59.460Z,89.34
2024-03-02T04:28:31.461Z,89.67
2024-03-02T04:29:04.215Z,89.82
2024-03-02T04:29:36.129Z,89.70
2024-03-02T04:30:08.435Z,88.63
2024-03-02T04:30:40.406Z,89.80
2024-03-02T04:31:12.349Z,89.22
2024-03-02T04:31:44.334Z,88.67
2024-03-02T04:32:16.294Z,88.61
2024-03-02T04:32:49.037Z,89.16
2024-03-02T04:33:21.138Z,89.01
2024-03-02T04:33:53.178Z,89.19
2024-03-02T04:34:25.127Z,89.81
2024-03-02T04:34:57.020Z,90.30
2024-03-02T04:35:30.019Z,89.58
2024-03-02T04:36:01.934Z,89.86
2024-03-02T04:36:34.315Z,89.62
2024-03-02T04:37:06.256Z,89.53
2024-03-02T04:37:38.223Z,90.22
2024-03-02T04:38:10.106Z,89.58
2024-03-02T04:38:42.018Z,89.89
2024-03-02T04:39:14.002Z,89.52
2024-03-02T04:39:46.419Z,89.73
2024-03-02T04:40:18.414Z,89.41
2024-03-02T04:40:50.362Z,89.50
2024-03-02T04:41:22.259Z,89.81
2024-03-02T04:41:54.160Z,89.74
2024-03-02T04:42:26.211Z,90.04
2024-03-02T04:42:58.276Z,90.55
2024-03-02T04:43:30.229Z,90.58
2024-03-02T04:44:02.297Z,91.68
2024-03-02T04:44:34.264Z,93.71
2024-03-02T04:45:06.447Z,93.24
2024-03-02T04:45:39.631Z,92.41
2024-03-02T04:46:12.190Z,91.52
2024-03-02T04:46:44.234Z,89.96
2024-03-02T04:47:16.129Z,89.57
2024-03-02T04:47:50.126Z,90.03
2024-03-02T04:48:23.349Z,90.60
2024-03-02T04:48:58.291Z,90.70
2024-03-02T04:49:31.326Z,90.55
2024-03-02T04:50:03.314Z,90.71
2024-03-02T04:50:35.264Z,90.51
2024-03-02T04:51:07.159Z,90.22
2024-03-02T04:51:39.159Z,90.34
2024-03-02T04:52:11.162Z,91.43
2024-03-02T04:52:43.062Z,92.25
2024-03-02T04:53:15.034Z,91.97
2024-03-02T04:53:46.965Z,91.66
2024-03-02T04:54:18.953Z,91.85
2024-03-02T04:55:09.347Z,91.98
2024-03-02T04:55:41.306Z,91.84
2024-03-02T04:56:31.522Z,92.53
2024-03-02T04:57:03.765Z,92.15
2024-03-02T04:57:35.739Z,92.71
2024-03-02T04:58:10.278Z,93.16
2024-03-02T04:58:42.194Z,92.53
2024-03-02T04:59:14.128Z,91.93
2024-03-02T04:59:46.258Z,91.63
2024-03-02T05:00:18.484Z,91.36
2024-03-02T05:00:52.993Z,91.23
2024-03-02T05:01:25.017Z,92.54
2024-03-02T05:01:57.011Z,92.36
2024-03-02T05:02:28.936Z,92.33
2024-03-02T05:03:00.826Z,92.98
2024-03-02T05:03:35.195Z,93.86
2024-03-02T05:04:07.144Z,92.97
2024-03-02T05:04:39.064Z,91.96
2024-03-02T05:05:10.986Z,92.58
2024-03-02T05:05:43.178Z,93.31
2024-03-02T05:06:15.112Z,93.00
2024-03-02T05:06:53.810Z,93.30
2024-03-02T05:07:26.055Z,93.46
2024-03-02T05:07:57.953Z,92.87
2024-03-02T05:08:29.858Z,93.00
2024-03-02T05:09:01.747Z,92.95
2024-03-02T05:09:33.682Z,93.28
2024-03-02T05:10:05.738Z,93.27
2024-03-02T05:10:37.825Z,94.29
2024-03-02T05:11:28.545Z,94.90
2024-03-02T05:12:16.802Z,94.92
2024-03-02T05:12:58.171Z,93.94
2024-03-02T05:13:30.272Z,94.02
2024-03-02T05:14:02.166Z,93.95
2024-03-02T05:14:34.094Z,94.21
2024-03-02T05:15:06.498Z,93.88
2024-03-02T05:15:38.469Z,93.93
2024-03-02T05:16:10.418Z,93.96
2024-03-02T05:16:42.778Z,93.88
2024-03-02T05:17:14.714Z,94.13
2024-03-02T05:17:46.865Z,94.45
2024-03-02T05:18:18.955Z,94.39
2024-03-02T05:18:51.247Z,95.12
2024-03-02T05:19:23.201Z,95.55
2024-03-02T05:19:55.108Z,95.26
2024-03-02T05:20:27.167Z,95.52
2024-03-02T05:20:59.115Z,95.79
2024-03-02T05:21:31.067Z,95.38
2024-03-02T05:22:04.249Z,95.46
2024-03-02T05:22:36.423Z,95.35
2024-03-02T05:23:08.320Z,95.71
2024-03-02T05:23:40.274Z,95.80
2024-03-02T05:24:14.588Z,97.08
2024-03-02T05:24:46.797Z,97.32
2024-03-02T05:25:18.724Z,96.67
2024-03-02T05:25:50.623Z,96.78
2024-03-02T05:26:22.531Z,97.22
2024-03-02T05:26:54.498Z,97.26
2024-03-02T05:27:26.451Z,97.06
2024-03-02T05:27:58.566Z,96.84
2024-03-02T05:28:30.533Z,96.52
2024-03-02T05:29:02.462Z,96.60
2024-03-02T05:29:34.428Z,96.44
2024-03-02T05:30:07.629Z,97.22
2024-03-02T05:30:39.597Z,96.71
2024-03-02T05:31:11.860Z,96.85
2024-03-02T05:31:43.747Z,97.44
2024-03-02T05:32:15.816Z,96.65
2024-03-02T05:32:47.738Z,96.30
2024-03-02T05:33:19.779Z,96.17
2024-03-02T05:33:54.888Z,96.43
2024-03-02T05:34:29.173Z,96.84
2024-03-02T05:35:01.144Z,97.14
2024-03-02T05:35:34.022Z,96.95
2024-03-02T05:36:06.488Z,96.82
2024-03-02T05:36:40.078Z,97.27
2024-03-02T05:37:12.384Z,97.39
2024-03-02T05:37:44.318Z,97.40
2024-03-02T05:38:16.259Z,97.70
2024-03-02T05:38:48.189Z,97.68
2024-03-02T05:39:20.141Z,96.94
2024-03-02T05:39:52.146Z,97.28
2024-03-02T05:40:24.576Z,97.48
2024-03-02T05:40:56.549Z,97.35
2024-03-02T05:41:28.483Z,97.26
2024-03-02T05:42:00.456Z,97.11
2024-03-02T05:42:32.395Z,96.94
2024-03-02T05:43:04.400Z,97.34
2024-03-02T05:43:36.358Z,97.67
2024-03-02T05:44:08.284Z,97.08
2024-03-02T05:44:40.192Z,97.03
2024-03-02T05:45:12.125Z,97.06
2024-03-02T05:45:44.169Z,97.43
2024-03-02T05:46:16.075Z,97.12
2024-03-02T05:46:47.994Z,97.58
2024-03-02T05:47:19.935Z,97.42
2024-03-02T05:47:51.992Z,97.25
2024-03-02T05:48:25.116Z,96.89
2024-03-02T05:48:57.212Z,97.21
2024-03-02T05:49:29.186Z,96.81
2024-03-02T05:50:01.410Z,96.31
2024-03-02T05:50:33.323Z,95.88
2024-03-02T05:51:05.357Z,96.08
2024-03-02T05:51:37.304Z,95.27
2024-03-02T05:52:09.250Z,94.88
2024-03-02T05:52:41.220Z,95.27
2024-03-02T05:53:13.164Z,94.94
2024-03-02T05:53:45.089Z,94.22
2024-03-02T05:54:17.084Z,94.45
2024-03-02T05:54:50.103Z,94.92
2024-03-02T05:55:22.035Z,94.96
2024-03-02T05:55:56.936Z,94.87
2024-03-02T05:56:28.932Z,94.93
2024-03-02T05:57:18.471Z,94.62
2024-03-02T05:58:00.224Z,95.20
2024-03-02T05:58:50.789Z,94.63
2024-03-02T05:59:22.735Z,94.84
2024-03-02T05:59:54.969Z,95.23
2024-03-02T06:00:26.998Z,95.38
2024-03-02T06:00:59.048Z,95.09
2024-03-02T06:01:31.737Z,95.18
2024-03-02T06:02:03.750Z,95.24
2024-03-02T06:02:38.922Z,94.60
2024-03-02T06:03:11.886Z,95.14
2024-03-02T06:03:43.849Z,94.81
2024-03-02T06:04:15.878Z,94.64
2024-03-02T06:04:47.814Z,95.31
2024-03-02T06:05:20.166Z,95.24
2024-03-02T06:05:52.203Z,94.87
2024-03-02T06:06:24.340Z,95.20
2024-03-02T06:06:57.421Z,95.49
2024-03-02T06:07:29.461Z,96.22
2024-03-02T06:08:01.400Z,95.23
2024-03-02T06:08:33.342Z,94.91
2024-03-02T06:09:14.291Z,95.21
2024-03-02T06:09:46.274Z,94.53
2024-03-02T06:10:18.716Z,94.12
2024-03-02T06:10:50.647Z,94.81
2024-03-02T06:11:22.643Z,95.11
2024-03-02T06:11:54.689Z,95.39
2024-03-02T06:12:26.855Z,95.15
2024-03-02T06:13:00.362Z,94.93
2024-03-02T06:13:32.350Z,95.11
2024-03-02T06:14:10.260Z,95.01
2024-03-02T06:14:42.271Z,94.63
2024-03-02T06:15:14.217Z,94.26
2024-03-02T06:15:46.191Z,94.13
2024-03-02T06:16:18.156Z,94.55
2024-03-02T06:16:50.122Z,94.66
2024-03-02T06:17:22.075Z,94.43
2024-03-02T06:17:53.988Z,94.67
2024-03-02T06:18:25.950Z,94.16
2024-03-02T06:18:59.070Z,94.37
2024-03-02T06:19:31.117Z,93.96
2024-03-02T06:20:03.091Z,93.93
2024-03-02T06:20:36.898Z,93.87
2024-03-02T06:21:09.294Z,94.25
2024-03-02T06:21:41.402Z,94.31
2024-03-02T06:22:13.383Z,94.86
2024-03-02T06:22:45.276Z,94.64
2024-03-02T06:23:17.190Z,94.02
2024-03-02T06:23:49.178Z,93.57
2024-03-02T06:24:21.165Z,93.55
2024-03-02T06:24:53.211Z,94.14
2024-03-02T06:25:25.162Z,93.83
2024-03-02T06:25:57.068Z,93.83
2024-03-02T06:26:30.203Z,93.88
2024-03-02T06:27:02.153Z,93.14
2024-03-02T06:27:34.084Z,93.42
2024-03-02T06:28:06.172Z,93.01
2024-03-02T06:28:38.143Z,92.77
2024-03-02T06:29:10.080Z,93.52
2024-03-02T06:29:42.046Z,93.45
2024-03-02T06:30:14.074Z,93.68
2024-03-02T06:30:46.350Z,93.45
2024-03-02T06:31:18.282Z,93.59
2024-03-02T06:31:51.257Z,93.43
2024-03-02T06:32:26.306Z,93.23
2024-03-02T06:32:58.878Z,93.43
2024-03-02T06:33:30.865Z,93.18
2024-03-02T06:34:04.858Z,93.22
2024-03-02T06:34:37.198Z,93.42
2024-03-02T06:35:11.200Z,93.42
2024-03-02T06:35:43.215Z,92.89
2024-03-02T06:36:16.905Z,92.12
2024-03-02T06:36:49.209Z,92.35
2024-03-02T06:37:21.244Z,92.22
2024-03-02T06:37:53.229Z,93.07
2024-03-02T06:38:25.153Z,92.47
2024-03-02T06:38:57.057Z,93.04
2024-03-02T06:39:28.948Z,91.98
2024-03-02T06:40:01.035Z,92.68
2024-03-02T06:40:33.180Z,92.61
2024-03-02T06:41:05.231Z,91.74
2024-03-02T06:41:38.499Z,92.39
2024-03-02T06:42:10.398Z,92.99
2024-03-02T06:42:42.446Z,92.71
2024-03-02T06:43:14.451Z,91.25
2024-03-02T06:43:46.399Z,91.76
2024-03-02T06:44:18.330Z,91.89
2024-03-02T06:44:50.394Z,92.36
2024-03-02T06:45:22.368Z,91.58
2024-03-02T06:45:54.317Z,91.40
2024-03-02T06:46:26.711Z,91.26
2024-03-02T06:46:58.680Z,91.59
2024-03-02T06:47:30.998Z,91.98
2024-03-02T06:48:03.018Z,91.79
2024-03-02T06:48:35.002Z,92.02
2024-03-02T06:49:07.071Z,92.16
2024-03-02T06:49:39.233Z,91.79
2024-03-02T06:50:11.185Z,91.87
2024-03-02T06:50:43.185Z,92.20
2024-03-02T06:51:16.500Z,91.93
2024-03-02T06:51:48.477Z,91.22
2024-03-02T06:52:24.723Z,91.83
2024-03-02T06:52:57.268Z,91.03
2024-03-02T06:53:29.585Z,91.39
2024-03-02T06:54:01.910Z,90.70
2024-03-02T06:54:33.832Z,91.12
2024-03-02T06:55:06.603Z,90.64
2024-03-02T06:55:38.586Z,91.08
2024-03-02T06:56:10.603Z,90.79
2024-03-02T06:56:42.530Z,90.95
2024-03-02T06:57:14.454Z,90.34
2024-03-02T06:57:46.577Z,89.80
2024-03-02T06:58:18.569Z,90.49
2024-03-02T06:58:50.499Z,90.66
2024-03-02T06:59:22.494Z,91.64
2024-03-02T06:59:58.576Z,91.74
2024-03-02T07:00:30.609Z,90.75
2024-03-02T07:01:02.623Z,90.78
2024-03-02T07:01:34.657Z,90.61